createdAt,value
2022-10-22T00:01:22.529Z,26.38
2022-10-22T00:09:05.645Z,24.83
2022-10-22T00:16:30.200Z,26.17
2022-10-22T00:20:20.660Z,25.13
2022-10-22T00:33:08.421Z,27.48
2022-10-22T00:36:39.833Z,23.85
2022-10-22T00:40:58.766Z,26.02
2022-10-22T00:49:48.889Z,25.48
2022-10-22T00:53:35.488Z,26.63
2022-10-22T00:57:00.696Z,23.75
2022-10-22T01:01:06.033Z,25.20
2022-10-22T01:04:11.703Z,23.88
2022-10-22T01:07:51.925Z,26.42
2022-10-22T01:24:19.304Z,24.73
2022-10-22T01:27:32.807Z,27.33
2022-10-22T01:30:47.210Z,25.77
2022-10-22T01:33:52.311Z,24.85
2022-10-22T01:36:56.694Z,25.00
2022-10-22T01:40:01.788Z,24.90
2022-10-22T01:43:07.208Z,24.70
2022-10-22T01:46:13.854Z,24.23
2022-10-22T01:49:23.475Z,23.92
2022-10-22T01:52:34.534Z,23.70
2022-10-22T01:55:47.062Z,26.00
2022-10-22T01:58:57.266Z,21.83
2022-10-22T02:02:07.092Z,23.33
2022-10-22T02:05:16.182Z,23.73
2022-10-22T02:08:22.763Z,24.42
2022-10-22T02:11:25.262Z,24.90
2022-10-22T02:14:30.780Z,21.75
2022-10-22T02:17:38.109Z,23.02
2022-10-22T02:20:43.130Z,22.42
2022-10-22T02:23:46.661Z,21.90
2022-10-22T02:26:56.792Z,20.58
2022-10-22T02:30:03.896Z,19.33
2022-10-22T02:33:12.650Z,17.45
2022-10-22T02:36:17.798Z,17.33
2022-10-22T02:39:21.851Z,19.05
2022-10-22T02:42:26.288Z,19.13
2022-10-22T02:45:28.938Z,20.70
2022-10-22T02:48:32.837Z,20.25
2022-10-22T02:51:35.626Z,21.73
2022-10-22T02:54:38.117Z,19.92
2022-10-22T02:57:40.810Z,21.52
2022-10-22T03:00:43.542Z,21.63
2022-10-22T03:03:47.399Z,23.73
2022-10-22T03:06:50.116Z,23.88
2022-10-22T03:09:52.606Z,24.67
2022-10-22T03:12:55.132Z,27.48
2022-10-22T03:15:57.701Z,27.00
2022-10-22T03:19:02.490Z,27.42
2022-10-22T03:22:10.040Z,29.23
2022-10-22T03:25:17.148Z,26.45
2022-10-22T03:28:19.792Z,26.77
2022-10-22T03:31:22.351Z,26.52
2022-10-22T03:34:26.165Z,29.17
2022-10-22T03:37:30.204Z,27.55
2022-10-22T03:40:32.758Z,28.70
2022-10-22T03:43:35.515Z,26.23
2022-10-22T03:46:37.969Z,27.88
2022-10-22T03:49:41.765Z,26.92
2022-10-22T03:52:44.269Z,27.70
2022-10-22T03:55:46.751Z,27.98
2022-10-22T03:58:49.233Z,27.65
2022-10-22T04:01:51.789Z,27.20
2022-10-22T04:04:55.579Z,27.65
2022-10-22T04:07:58.069Z,27.55
2022-10-22T04:11:00.556Z,28.50
2022-10-22T04:14:03.043Z,26.95
2022-10-22T04:17:05.514Z,25.63
2022-10-22T04:20:10.705Z,25.65
2022-10-22T04:23:13.553Z,25.85
2022-10-22T04:26:16.913Z,25.48
2022-10-22T04:29:19.385Z,27.67
2022-10-22T04:32:21.873Z,25.17
2022-10-22T04:38:33.111Z,26.30
2022-10-22T04:41:38.082Z,27.65
2022-10-22T04:44:40.551Z,24.50
2022-10-22T04:47:43.238Z,25.33
2022-10-22T04:50:47.302Z,25.42
2022-10-22T04:53:49.858Z,24.63
2022-10-22T04:56:52.340Z,24.40
2022-10-22T04:59:54.814Z,25.20
2022-10-22T05:02:57.290Z,23.98
2022-10-22T05:06:03.242Z,23.80
2022-10-22T05:09:09.185Z,22.85
2022-10-22T05:12:11.769Z,24.27
2022-10-22T05:15:14.226Z,24.42
2022-10-22T05:18:19.007Z,25.25
2022-10-22T05:21:25.681Z,24.10
2022-10-22T05:24:29.551Z,23.50
2022-10-22T05:27:32.033Z,24.58
2022-10-22T05:30:34.509Z,25.23
2022-10-22T05:33:37.034Z,24.30
2022-10-22T05:36:41.449Z,23.63
2022-10-22T05:39:43.926Z,25.80
2022-10-22T05:42:46.395Z,26.23
2022-10-22T05:45:48.865Z,23.73
2022-10-22T05:48:51.655Z,24.10
2022-10-22T05:51:55.454Z,25.73
2022-10-22T05:54:57.924Z,26.80
2022-10-22T05:58:00.390Z,26.13
2022-10-22T06:01:07.126Z,25.60
2022-10-22T06:04:12.905Z,25.20
2022-10-22T06:07:17.361Z,25.88
2022-10-22T06:10:22.309Z,25.65
2022-10-22T06:13:24.897Z,25.98
2022-10-22T06:16:30.446Z,24.50
2022-10-22T06:19:32.939Z,22.67
2022-10-22T06:22:38.087Z,24.15
2022-10-22T06:25:40.597Z,22.98
2022-10-22T06:28:43.100Z,22.98
2022-10-22T06:31:45.620Z,24.17
2022-10-22T06:34:48.228Z,24.17
2022-10-22T06:37:52.034Z,24.17
2022-10-22T06:40:54.472Z,23.30
2022-10-22T06:43:57.811Z,23.80
2022-10-22T06:47:00.830Z,25.17
2022-10-22T06:50:03.451Z,24.67
2022-10-22T06:53:07.293Z,25.08
2022-10-22T06:56:11.885Z,23.42
2022-10-22T06:59:14.350Z,23.27
2022-10-22T07:02:16.825Z,24.17
2022-10-22T07:05:19.376Z,23.33
2022-10-22T07:08:23.232Z,23.90
2022-10-22T07:11:27.334Z,24.65
2022-10-22T07:14:29.899Z,23.67
2022-10-22T07:17:32.387Z,24.50
2022-10-22T07:20:34.904Z,23.90
2022-10-22T07:23:39.308Z,26.38
2022-10-22T07:26:41.786Z,23.88
2022-10-22T07:29:44.264Z,23.15
2022-10-22T07:32:46.766Z,23.98
2022-10-22T07:35:49.291Z,24.60
2022-10-22T07:38:57.509Z,23.33
2022-10-22T07:41:59.998Z,24.67
2022-10-22T07:45:02.460Z,24.30
2022-10-22T07:48:05.465Z,25.02
2022-10-22T07:51:08.260Z,24.70
2022-10-22T07:54:12.051Z,24.35
2022-10-22T07:57:14.609Z,22.67
2022-10-22T08:00:19.449Z,22.85
2022-10-22T08:03:24.352Z,23.70
2022-10-22T08:06:26.846Z,25.13
2022-10-22T08:09:30.648Z,25.42
2022-10-22T08:12:33.116Z,22.70
2022-10-22T08:15:36.206Z,22.95
2022-10-22T08:18:39.484Z,22.67
2022-10-22T08:21:41.948Z,23.33
2022-10-22T08:24:45.765Z,23.45
2022-10-22T08:27:48.547Z,23.73
2022-10-22T08:30:51.041Z,22.75
2022-10-22T08:33:53.734Z,23.08
2022-10-22T08:36:56.630Z,21.75
2022-10-22T08:40:00.456Z,21.55
2022-10-22T08:43:22.429Z,21.85
2022-10-22T08:52:47.454Z,18.80
2022-10-22T08:55:54.921Z,19.42
2022-10-22T08:59:02.034Z,20.92
2022-10-22T09:02:14.462Z,20.77
2022-10-22T09:05:31.695Z,19.33
2022-10-22T09:08:35.243Z,20.75
2022-10-22T09:11:42.017Z,19.33
2022-10-22T09:14:44.710Z,18.98
2022-10-22T09:17:59.578Z,18.55
2022-10-22T09:21:13.278Z,18.58
2022-10-22T09:24:27.486Z,18.08
2022-10-22T09:27:33.414Z,17.95
2022-10-22T09:30:37.983Z,19.27
2022-10-22T09:33:41.776Z,19.08
2022-10-22T09:36:44.283Z,18.67
2022-10-22T09:39:49.121Z,16.85
2022-10-22T09:42:52.937Z,17.25
2022-10-22T09:46:00.482Z,17.48
2022-10-22T09:49:07.441Z,17.58
2022-10-22T09:52:36.474Z,16.80
2022-10-22T09:55:39.569Z,17.33
2022-10-22T09:58:45.888Z,16.27
2022-10-22T10:01:48.516Z,17.17
2022-10-22T10:04:57.192Z,15.45
2022-10-22T10:08:01.829Z,16.10
2022-10-22T10:11:11.700Z,18.25
2022-10-22T10:14:21.227Z,16.70
2022-10-22T10:17:37.576Z,17.67
2022-10-22T10:20:48.435Z,17.48
2022-10-22T10:23:58.932Z,16.85
2022-10-22T10:27:10.181Z,17.05
2022-10-22T10:30:17.860Z,17.25
2022-10-22T10:33:34.234Z,17.67
2022-10-22T10:36:45.448Z,18.15
2022-10-22T10:40:04.730Z,17.20
2022-10-22T10:56:39.907Z,21.48
2022-10-22T11:00:06.252Z,20.77
2022-10-22T11:03:49.819Z,21.17
2022-10-22T11:07:10.679Z,21.55
2022-10-22T11:10:28.592Z,21.98
2022-10-22T11:13:38.678Z,21.98
2022-10-22T11:16:47.056Z,22.20
2022-10-22T11:19:59.939Z,21.40
2022-10-22T11:23:22.143Z,20.00
2022-10-22T11:26:36.752Z,22.15
2022-10-22T11:29:45.340Z,20.55
2022-10-22T11:32:50.785Z,19.73
2022-10-22T11:35:54.220Z,20.30
2022-10-22T11:38:56.970Z,19.90
2022-10-22T11:42:00.481Z,19.40
2022-10-22T11:45:07.149Z,19.73
2022-10-22T11:48:18.882Z,20.08
2022-10-22T11:54:43.533Z,18.08
2022-10-22T11:57:48.812Z,18.33
2022-10-22T12:00:52.669Z,18.48
2022-10-22T12:04:21.393Z,15.88
2022-10-22T12:07:34.356Z,17.40
2022-10-22T12:10:49.947Z,17.02
2022-10-22T12:13:59.444Z,16.38
2022-10-22T12:17:10.733Z,15.43
2022-10-22T12:20:17.568Z,14.00
2022-10-22T12:23:22.015Z,16.27
2022-10-22T12:26:27.069Z,15.25
2022-10-22T12:29:32.583Z,16.02
2022-10-22T12:32:38.346Z,15.27
2022-10-22T12:35:45.306Z,15.77
2022-10-22T12:38:48.397Z,13.32
2022-10-22T12:41:53.000Z,14.13
2022-10-22T12:44:56.769Z,13.93
2022-10-22T12:48:02.995Z,15.52
2022-10-22T12:51:09.453Z,14.20
2022-10-22T12:54:22.373Z,14.07
2022-10-22T12:57:26.184Z,14.07
2022-10-22T13:00:34.474Z,14.10
2022-10-22T13:03:43.412Z,13.50
2022-10-22T13:06:47.025Z,14.20
2022-10-22T13:09:59.063Z,12.40
2022-10-22T13:13:03.246Z,14.10
2022-10-22T13:16:20.430Z,14.50
2022-10-22T13:19:40.241Z,12.82
2022-10-22T13:22:54.488Z,12.98
2022-10-22T13:26:03.910Z,13.30
2022-10-22T13:29:14.628Z,13.38
2022-10-22T13:32:30.537Z,13.15
2022-10-22T13:35:37.810Z,11.73
2022-10-22T13:38:40.358Z,12.30
2022-10-22T13:41:42.892Z,12.98
2022-10-22T13:44:45.465Z,12.30
2022-10-22T13:47:51.755Z,14.20
2022-10-22T13:50:55.654Z,14.25
2022-10-22T13:53:58.452Z,14.18
2022-10-22T13:57:00.969Z,13.82
2022-10-22T14:00:03.479Z,14.95
2022-10-22T14:03:06.596Z,14.35
2022-10-22T14:06:14.578Z,13.75
2022-10-22T14:09:17.314Z,14.98
2022-10-22T14:12:19.885Z,13.73
2022-10-22T14:15:24.743Z,13.40
2022-10-22T14:18:31.662Z,14.45
2022-10-22T14:21:38.265Z,13.65
2022-10-22T14:24:40.712Z,13.20
2022-10-22T14:27:43.615Z,13.18
2022-10-22T14:30:47.357Z,13.32
2022-10-22T14:33:50.438Z,12.13
2022-10-22T14:36:54.346Z,11.82
2022-10-22T14:40:01.691Z,11.63
2022-10-22T14:43:04.479Z,12.60
2022-10-22T14:46:06.977Z,12.55
2022-10-22T14:49:09.537Z,12.18
2022-10-22T14:52:14.913Z,12.95
2022-10-22T14:55:19.940Z,11.90
2022-10-22T14:58:22.417Z,12.05
2022-10-22T15:01:24.914Z,11.25
2022-10-22T15:04:28.178Z,11.60
2022-10-22T15:07:32.038Z,11.48
2022-10-22T15:10:34.668Z,11.55
2022-10-22T15:13:37.152Z,10.60
2022-10-22T15:16:39.654Z,10.32
2022-10-22T15:19:43.476Z,9.52
2022-10-22T15:22:47.288Z,10.45
2022-10-22T15:25:49.841Z,9.20
2022-10-22T15:28:52.316Z,10.65
2022-10-22T15:31:57.792Z,9.85
2022-10-22T15:35:00.731Z,8.68
2022-10-22T15:38:06.512Z,8.68
2022-10-22T15:41:12.341Z,8.18
2022-10-22T15:44:17.378Z,8.63
2022-10-22T15:47:19.837Z,9.70
2022-10-22T15:50:22.353Z,8.90
2022-10-22T15:53:26.152Z,8.75
2022-10-22T15:56:30.630Z,8.85
2022-10-22T15:59:33.239Z,8.98
2022-10-22T16:02:35.754Z,9.63
2022-10-22T16:05:38.239Z,8.60
2022-10-22T16:08:42.054Z,8.70
2022-10-22T16:11:45.397Z,8.18
2022-10-22T16:14:50.827Z,7.95
2022-10-22T16:17:53.270Z,8.02
2022-10-22T16:20:55.737Z,7.05
2022-10-22T16:24:06.002Z,6.78
2022-10-22T16:27:09.766Z,5.55
2022-10-22T16:30:13.387Z,5.00
2022-10-22T16:33:15.836Z,5.28
2022-10-22T16:36:20.247Z,4.97
2022-10-22T16:39:24.524Z,5.35
2022-10-22T16:42:27.077Z,3.75
